createdAt,value
2016-05-15T00:00:22.577Z,64.46
2016-05-15T00:01:22.596Z,64.56
2016-05-15T00:02:22.613Z,63.89
2016-05-15T00:03:22.664Z,64.18
2016-05-15T00:04:22.511Z,64.27
2016-05-15T00:05:22.529Z,64.27
2016-05-15T00:06:22.719Z,64.46
2016-05-15T00:07:22.721Z,64.65
2016-05-15T00:08:22.739Z,65.22
2016-05-15T00:09:22.757Z,64.75
2016-05-15T00:10:22.793Z,65.22
2016-05-15T00:11:22.810Z,65.28
2016-05-15T00:12:22.845Z,65.76
2016-05-15T00:13:22.862Z,65.51
2016-05-15T00:14:22.865Z,65.41
2016-05-15T00:15:22.743Z,65.7
2016-05-15T00:16:37.105Z,65.86
2016-05-15T00:17:22.936Z,66.33
2016-05-15T00:18:22.954Z,66.61
2016-05-15T00:19:23.519Z,66.24
2016-05-15T00:20:23.006Z,66.24
2016-05-15T00:21:23.025Z,66.24
2016-05-15T00:22:23.042Z,66.42
2016-05-15T00:23:23.078Z,66.52
2016-05-15T00:24:23.080Z,66.24
2016-05-15T00:25:23.098Z,65.86
2016-05-15T00:27:23.150Z,66.8
2016-05-15T00:28:23.168Z,66.71
2016-05-15T00:31:23.239Z,66.65
2016-05-15T00:32:37.430Z,66.65
2016-05-15T00:33:23.104Z,66.24
2016-05-15T00:34:23.591Z,65.89
2016-05-15T00:35:23.312Z,66.17
2016-05-15T00:36:23.330Z,66.08
2016-05-15T00:37:23.349Z,65.7
2016-05-15T00:38:23.210Z,65.99
2016-05-15T00:39:23.401Z,65.6
2016-05-15T00:40:23.420Z,65.22
2016-05-15T00:41:23.437Z,65.03
2016-05-15T00:43:23.474Z,64.84
2016-05-15T00:44:23.493Z,64.46
2016-05-15T00:45:23.511Z,65.03
2016-05-15T00:46:23.545Z,64.56
2016-05-15T00:47:23.564Z,64.84
2016-05-15T00:48:37.769Z,64.46
2016-05-15T00:49:24.398Z,64.08
2016-05-15T00:50:23.618Z,64.27
2016-05-15T00:51:23.653Z,64.56
2016-05-15T00:52:23.670Z,65.22
2016-05-15T00:53:23.689Z,64.94
2016-05-15T00:54:23.707Z,65.13
2016-05-15T00:55:23.725Z,65.22
2016-05-15T00:57:23.778Z,65.32
2016-05-15T00:58:23.796Z,65.51
2016-05-15T00:59:23.814Z,64.84
2016-05-15T01:00:23.833Z,64.56
2016-05-15T01:01:23.851Z,64.56
2016-05-15T01:02:23.885Z,64.31
2016-05-15T01:03:43.872Z,64.11
2016-05-15T01:04:38.110Z,64.46
2016-05-15T01:05:23.940Z,64.84
2016-05-15T01:06:23.958Z,65.6
2016-05-15T01:07:23.977Z,65.32
2016-05-15T01:08:23.995Z,65.22
2016-05-15T01:09:24.029Z,65.03
2016-05-15T01:10:24.047Z,64.65
2016-05-15T01:11:24.066Z,65.41
2016-05-15T01:12:24.084Z,65.22
2016-05-15T01:13:24.102Z,65.03
2016-05-15T01:14:24.136Z,65.51
2016-05-15T01:15:24.154Z,65.13
2016-05-15T01:17:24.190Z,64.94
2016-05-15T01:18:24.225Z,64.84
2016-05-15T01:19:38.415Z,65.32
2016-05-15T01:20:24.261Z,64.84
2016-05-15T01:21:24.281Z,65.41
2016-05-15T01:22:24.298Z,65.03
2016-05-15T01:23:24.317Z,64.84
2016-05-15T01:24:24.334Z,64.69
2016-05-15T01:26:24.387Z,64.27
2016-05-15T01:27:24.249Z,64.11
2016-05-15T01:29:24.442Z,64.11
2016-05-15T01:30:24.460Z,64.21
2016-05-15T01:31:24.494Z,65.03
2016-05-15T01:32:24.513Z,65.13
2016-05-15T01:33:24.531Z,65.32
2016-05-15T01:34:24.783Z,64.84
2016-05-15T01:35:24.411Z,65.22
2016-05-15T01:36:24.586Z,64.87
2016-05-15T01:37:24.604Z,64.59
2016-05-15T01:38:24.622Z,64.5
2016-05-15T01:39:24.657Z,64.56
2016-05-15T01:40:24.674Z,64.78
2016-05-15T01:41:24.693Z,65.16
2016-05-15T01:44:24.748Z,65.25
2016-05-15T01:45:24.609Z,64.97
2016-05-15T01:47:24.818Z,65.13
2016-05-15T01:48:24.837Z,65.22
2016-05-15T01:49:25.449Z,65.41
2016-05-15T01:50:24.889Z,65.22
2016-05-15T01:51:39.079Z,65.03
2016-05-15T01:52:24.925Z,65.51
2016-05-15T01:53:24.945Z,65.13
2016-05-15T01:54:24.962Z,65.6
2016-05-15T01:55:24.981Z,66.08
2016-05-15T01:56:24.999Z,65.51
2016-05-15T01:57:25.033Z,65.51
2016-05-15T02:00:25.088Z,65.51
2016-05-15T02:01:25.122Z,65.7
2016-05-15T02:02:24.969Z,65.89
2016-05-15T02:03:25.158Z,66.17
2016-05-15T02:04:25.021Z,65.89
2016-05-15T02:05:25.194Z,65.99
2016-05-15T02:06:25.213Z,65.99
2016-05-15T02:07:39.419Z,66.27
2016-05-15T02:08:25.249Z,66.55
2016-05-15T02:09:25.109Z,66.55
2016-05-15T02:10:25.144Z,66.46
2016-05-15T02:11:25.540Z,66.27
2016-05-15T02:12:25.338Z,66.27
2016-05-15T02:13:25.358Z,66.65
2016-05-15T02:15:25.391Z,67.13
2016-05-15T02:16:25.268Z,66.94
2016-05-15T02:17:25.444Z,66.84
2016-05-15T02:18:25.462Z,67.03
2016-05-15T02:19:25.464Z,67.5
2016-05-15T02:21:25.532Z,67.79
2016-05-15T02:22:25.551Z,67.69
2016-05-15T02:23:39.743Z,67.98
2016-05-15T02:24:25.587Z,68.74
2016-05-15T02:25:25.606Z,68.27
2016-05-15T02:26:25.639Z,69.41
2016-05-15T02:27:25.642Z,69.88
2016-05-15T02:28:25.676Z,70.26
2016-05-15T02:29:25.695Z,71.02
2016-05-15T02:30:25.713Z,70.83
2016-05-15T02:31:25.731Z,71.59
2016-05-15T02:32:25.749Z,72.55
2016-05-15T02:33:25.768Z,72.45
2016-05-15T02:34:26.130Z,72.64
2016-05-15T02:35:25.804Z,73.02
2016-05-15T02:36:25.838Z,73.11
2016-05-15T02:37:25.857Z,73.69
2016-05-15T02:38:25.875Z,73.78
2016-05-15T02:39:40.083Z,74.16
2016-05-15T02:40:25.755Z,74.73
2016-05-15T02:41:25.930Z,74.16
2016-05-15T02:42:25.963Z,74.82
2016-05-15T02:43:25.998Z,75.4
2016-05-15T02:44:26.001Z,75.4
2016-05-15T02:45:26.019Z,75.96
2016-05-15T02:46:26.037Z,76.35
2016-05-15T02:47:26.055Z,77.11
2016-05-15T02:48:26.089Z,77.68
2016-05-15T02:49:26.295Z,76.63
2016-05-15T02:50:26.126Z,77.01
2016-05-15T02:51:25.987Z,77.73
2016-05-15T02:52:26.163Z,77.92
2016-05-15T02:53:26.181Z,77.64
2016-05-15T02:54:40.389Z,78.06
2016-05-15T02:55:26.233Z,77.87
2016-05-15T02:56:26.251Z,78.53
2016-05-15T02:57:26.270Z,77.77
2016-05-15T02:58:26.131Z,78.06
2016-05-15T02:59:26.323Z,77.3
2016-05-15T03:00:26.340Z,78.21
2016-05-15T03:01:26.358Z,78.11
2016-05-15T03:02:26.377Z,77.36
2016-05-15T03:03:26.395Z,78.11
2016-05-15T03:04:26.413Z,78.21
2016-05-15T03:05:26.432Z,77.55
2016-05-15T03:06:26.481Z,77.73
2016-05-15T03:07:26.484Z,78.02
2016-05-15T03:08:26.502Z,78.02
2016-05-15T03:09:26.521Z,77.64
2016-05-15T03:10:26.539Z,78.11
2016-05-15T03:11:26.557Z,78.06
2016-05-15T03:12:26.419Z,77.64
2016-05-15T03:13:26.610Z,77.83
2016-05-15T03:14:26.628Z,78.3
2016-05-15T03:15:26.490Z,77.36
2016-05-15T03:17:26.683Z,77.55
2016-05-15T03:18:26.701Z,77.36
2016-05-15T03:19:27.016Z,77.73
2016-05-15T03:20:26.753Z,77.92
2016-05-15T03:21:26.772Z,78.4
2016-05-15T03:22:26.790Z,78.88
2016-05-15T03:23:26.808Z,78.44
2016-05-15T03:24:26.827Z,78.3
2016-05-15T03:25:26.845Z,78.53
2016-05-15T03:26:41.054Z,78.4
2016-05-15T03:27:26.898Z,78.88
2016-05-15T03:28:26.915Z,78.11
2016-05-15T03:29:26.934Z,78.5
2016-05-15T03:30:26.952Z,78.88
2016-05-15T03:31:26.970Z,78.11
2016-05-15T03:32:26.833Z,78.53
2016-05-15T03:33:27.022Z,78.5
2016-05-15T03:34:27.056Z,78.11
2016-05-15T03:35:27.059Z,78.21
2016-05-15T03:36:26.922Z,78.21
2016-05-15T03:37:27.111Z,78.11
2016-05-15T03:39:27.149Z,78.69
2016-05-15T03:40:27.151Z,78.3
2016-05-15T03:41:27.185Z,78.11
2016-05-15T03:42:41.378Z,77.68
2016-05-15T03:43:27.222Z,78.16
2016-05-15T03:44:27.240Z,78.11
2016-05-15T03:45:27.257Z,79.06
2016-05-15T03:46:27.277Z,78.69
2016-05-15T03:47:27.326Z,78.78
2016-05-15T03:48:27.328Z,79.06
2016-05-15T03:49:27.551Z,78.59
2016-05-15T03:51:27.399Z,78.63
2016-05-15T03:52:27.401Z,78.11
2016-05-15T03:53:27.421Z,78.69
2016-05-15T03:54:27.282Z,78.34
2016-05-15T03:55:27.472Z,78.72
2016-05-15T03:56:27.491Z,78.63
2016-05-15T03:57:27.509Z,78.21
2016-05-15T03:58:41.717Z,78.25
2016-05-15T03:59:27.389Z,78.63
2016-05-15T04:00:27.564Z,77.87
2016-05-15T04:01:27.598Z,78.34
2016-05-15T04:02:27.616Z,78.16
2016-05-15T04:03:27.634Z,78.34
2016-05-15T04:04:27.512Z,78.53
2016-05-15T04:05:27.672Z,78.34
2016-05-15T04:06:27.549Z,78.44
2016-05-15T04:07:27.724Z,79.11
2016-05-15T04:08:27.570Z,78.34
2016-05-15T04:09:27.604Z,78.53
2016-05-15T04:10:27.778Z,78.82
2016-05-15T04:11:27.797Z,78.44
2016-05-15T04:12:27.816Z,78.16
2016-05-15T04:13:27.849Z,78.16
2016-05-15T04:14:42.042Z,78.25
2016-05-15T04:15:27.886Z,78.25
2016-05-15T04:16:27.904Z,77.68
2016-05-15T04:17:27.921Z,77.2
2016-05-15T04:18:27.941Z,77.49
2016-05-15T04:19:28.334Z,77.68
2016-05-15T04:20:27.977Z,78.34
2016-05-15T04:21:28.012Z,77.97
2016-05-15T04:22:28.030Z,78.16
2016-05-15T04:23:28.048Z,77.68
2016-05-15T04:24:28.065Z,77.39
2016-05-15T04:25:28.085Z,77.68
2016-05-15T04:26:28.103Z,77.68
2016-05-15T04:27:28.137Z,77.39
2016-05-15T04:28:28.155Z,77.11
2016-05-15T04:29:42.348Z,77.34
2016-05-15T04:30:28.192Z,77.43
2016-05-15T04:31:28.209Z,76.57
2016-05-15T04:32:28.228Z,75.43
2016-05-15T04:33:28.262Z,76.29
2016-05-15T04:34:28.281Z,76.16
2016-05-15T04:36:28.317Z,76.63
2016-05-15T04:37:28.336Z,77.68
2016-05-15T04:38:28.353Z,78.25
2016-05-15T04:39:28.388Z,77.97
2016-05-15T04:41:28.424Z,79.01
2016-05-15T04:42:28.443Z,79.39
2016-05-15T04:43:28.461Z,79.49
2016-05-15T04:44:28.479Z,79.96
2016-05-15T04:45:28.357Z,80.53
2016-05-15T04:46:28.531Z,81.58
2016-05-15T04:47:28.550Z,81.2
2016-05-15T04:48:28.568Z,81.73
2016-05-15T04:49:28.587Z,82.15
2016-05-15T04:50:28.605Z,81.48
2016-05-15T04:51:28.623Z,82.24
2016-05-15T04:52:28.657Z,83.25
2016-05-15T04:53:28.519Z,82.58
2016-05-15T04:54:28.521Z,82.49
2016-05-15T04:55:28.556Z,83.44
2016-05-15T04:56:28.731Z,82.96
2016-05-15T04:57:28.749Z,83.25
2016-05-15T04:58:28.611Z,84.14
2016-05-15T04:59:28.785Z,83.15
2016-05-15T05:00:28.803Z,84.2
2016-05-15T05:01:43.028Z,84.1
2016-05-15T05:02:28.856Z,84.48
2016-05-15T05:03:28.874Z,84.01
2016-05-15T05:04:28.893Z,84.67
2016-05-15T05:05:28.911Z,84.95
2016-05-15T05:06:28.944Z,85.05
2016-05-15T05:07:28.964Z,85.72
2016-05-15T05:08:28.981Z,85.34
2016-05-15T05:09:28.999Z,84.39
2016-05-15T05:10:29.019Z,85.24
2016-05-15T05:11:29.036Z,85.05
2016-05-15T05:12:29.070Z,85.05
2016-05-15T05:13:29.088Z,85.62
2016-05-15T05:14:29.107Z,84.86
2016-05-15T05:15:29.125Z,85.62
2016-05-15T05:16:29.143Z,85.72
2016-05-15T05:17:43.352Z,86.29
2016-05-15T05:18:29.180Z,85.05
2016-05-15T05:19:29.652Z,85.34
2016-05-15T05:20:29.216Z,86.1
2016-05-15T05:21:29.251Z,86.61
2016-05-15T05:22:29.269Z,86.67
2016-05-15T05:23:29.287Z,85.91
2016-05-15T05:24:29.306Z,85.76
2016-05-15T05:25:29.323Z,85.66
2016-05-15T05:26:29.358Z,84.62
2016-05-15T05:27:29.220Z,85
2016-05-15T05:29:29.413Z,85
2016-05-15T05:30:29.431Z,85.57
2016-05-15T05:31:29.449Z,85.28
2016-05-15T05:32:29.467Z,85.19
2016-05-15T05:33:43.676Z,85.19
2016-05-15T05:34:29.520Z,85.28
2016-05-15T05:35:29.553Z,85.1
2016-05-15T05:36:29.557Z,85.1
2016-05-15T05:37:29.575Z,85.1
2016-05-15T05:38:29.593Z,84.43
2016-05-15T05:39:29.611Z,83.67
2016-05-15T05:40:29.645Z,84.33
2016-05-15T05:41:29.664Z,84.52
2016-05-15T05:42:29.525Z,84.24
2016-05-15T05:43:29.700Z,84.72
2016-05-15T05:44:29.719Z,84.33
2016-05-15T05:45:29.737Z,84.24
2016-05-15T05:46:29.755Z,83.76
2016-05-15T05:47:29.789Z,83.58
2016-05-15T05:48:29.808Z,83.39
2016-05-15T05:49:44.001Z,83.29
2016-05-15T05:50:29.844Z,83.58
2016-05-15T05:51:29.879Z,83.67
2016-05-15T05:52:29.881Z,83.58
2016-05-15T05:53:29.899Z,82.81
2016-05-15T05:54:29.933Z,83
2016-05-15T05:55:29.951Z,83.19
2016-05-15T05:56:29.985Z,83.48
2016-05-15T05:57:29.988Z,82.43
2016-05-15T05:58:30.006Z,82.28
2016-05-15T05:59:30.040Z,82.15
2016-05-15T06:00:30.058Z,82.05
2016-05-15T06:01:30.077Z,82.43
2016-05-15T06:02:29.939Z,81.1
2016-05-15T06:03:30.114Z,82.62
2016-05-15T06:04:44.322Z,82.28
2016-05-15T06:05:30.166Z,82.28
2016-05-15T06:06:30.184Z,81.81
2016-05-15T06:07:30.203Z,81.33
2016-05-15T06:08:30.236Z,81.81
2016-05-15T06:09:30.255Z,81.43
2016-05-15T06:10:30.272Z,80.91
2016-05-15T06:11:30.292Z,81.58
2016-05-15T06:12:30.310Z,81.52
2016-05-15T06:13:30.172Z,80.95
2016-05-15T06:15:30.380Z,81.43
2016-05-15T06:16:30.399Z,80.86
2016-05-15T06:17:30.401Z,81.05
2016-05-15T06:18:30.436Z,80.76
2016-05-15T06:19:30.454Z,80.95
2016-05-15T06:20:30.471Z,80.47
2016-05-15T06:21:30.491Z,80.95
2016-05-15T06:22:30.524Z,79.38
2016-05-15T06:23:30.542Z,79.28
2016-05-15T06:24:30.560Z,78.99
2016-05-15T06:25:30.579Z,77.66
2016-05-15T06:28:30.634Z,77.66
2016-05-15T06:29:30.512Z,78.9
2016-05-15T06:30:30.686Z,77.66
2016-05-15T06:31:30.704Z,78.04
2016-05-15T06:32:30.723Z,77.56
2016-05-15T06:33:30.757Z,76.33
2016-05-15T06:34:30.775Z,76.61
2016-05-15T06:35:30.793Z,76.52
2016-05-15T06:36:45.002Z,74.37
2016-05-15T06:37:30.830Z,74.04
2016-05-15T06:38:30.864Z,74.14
2016-05-15T06:39:30.725Z,72.65
2016-05-15T06:40:30.917Z,70.69
2016-05-15T06:41:30.950Z,70.4
2016-05-15T06:42:30.952Z,69.39
2016-05-15T06:43:30.972Z,69.58
2016-05-15T06:44:31.005Z,69.43
2016-05-15T06:45:31.024Z,67.42
2016-05-15T06:46:30.885Z,68.15
2016-05-15T06:48:31.078Z,66.38
2016-05-15T06:49:31.315Z,65.42
2016-05-15T06:50:31.131Z,66.75
2016-05-15T06:51:31.149Z,64.4
2016-05-15T06:52:45.357Z,64.02
2016-05-15T06:53:31.201Z,61.22
2016-05-15T06:54:31.235Z,58.38
2016-05-15T06:55:31.254Z,57.26
2016-05-15T06:56:31.271Z,57.36
2016-05-15T06:57:31.290Z,58.19
2016-05-15T06:58:31.309Z,58.73
2016-05-15T06:59:31.342Z,60.14
2016-05-15T07:00:31.376Z,61.66
2016-05-15T07:01:31.395Z,62.59
2016-05-15T07:02:31.413Z,62.21
2016-05-15T07:03:31.275Z,62.97
2016-05-15T07:04:31.465Z,62.11
2016-05-15T07:05:31.484Z,61.76
2016-05-15T07:07:31.535Z,62.3
2016-05-15T07:08:45.744Z,61.38
2016-05-15T07:09:31.572Z,61.57
2016-05-15T07:10:31.466Z,61.92
2016-05-15T07:11:31.624Z,62.3
2016-05-15T07:12:31.643Z,61.54
2016-05-15T07:13:31.677Z,62.3
2016-05-15T07:14:31.694Z,60.9
2016-05-15T07:15:31.730Z,60.27
2016-05-15T07:16:31.763Z,60.9
2016-05-15T07:17:31.766Z,61.16
2016-05-15T07:18:31.800Z,61.47
2016-05-15T07:19:31.818Z,58.83
2016-05-15T07:20:31.836Z,59.12
2016-05-15T07:21:31.870Z,57.24
2016-05-15T07:22:31.888Z,55.83
2016-05-15T07:23:31.907Z,55.93
2016-05-15T07:24:46.115Z,53.47
2016-05-15T07:25:31.959Z,52.34
2016-05-15T07:26:31.993Z,53.49
2016-05-15T07:27:32.012Z,53.28
2016-05-15T07:28:32.029Z,53.25
2016-05-15T07:29:32.063Z,54.49
2016-05-15T07:31:31.960Z,54.85
2016-05-15T07:33:32.153Z,54.08
2016-05-15T07:34:32.031Z,53.44
2016-05-15T07:35:32.204Z,51.75
2016-05-15T07:36:32.222Z,50.34
2016-05-15T07:37:32.257Z,48.25
2016-05-15T07:38:32.275Z,47.99
2016-05-15T07:39:46.547Z,46.65
2016-05-15T07:40:32.391Z,46.08
2016-05-15T07:41:32.469Z,45.69
2016-05-15T07:42:32.530Z,45.12
2016-05-15T07:43:32.607Z,45.69
2016-05-15T07:44:32.657Z,45.9
2016-05-15T07:45:32.706Z,46.67
2016-05-15T07:46:32.756Z,46.19
2016-05-15T07:47:32.790Z,45.04
2016-05-15T07:48:32.823Z,45.23
2016-05-15T07:49:32.712Z,43.97
2016-05-15T07:50:32.892Z,44.16
2016-05-15T07:51:32.931Z,44.16
2016-05-15T07:52:32.955Z,43.41
2016-05-15T07:53:38.626Z,42.96
2016-05-15T07:54:33.017Z,42.46
2016-05-15T07:55:32.912Z,43.8
2016-05-15T07:56:33.073Z,41.9
2016-05-15T07:57:33.108Z,40.77
2016-05-15T07:58:33.129Z,40.79
2016-05-15T07:59:33.164Z,38.78
2016-05-15T08:00:33.184Z,40
2016-05-15T08:01:33.202Z,40.77
2016-05-15T08:02:33.236Z,40.87
2016-05-15T08:03:33.272Z,40.87
2016-05-15T08:04:33.306Z,39.28
2016-05-15T08:05:33.325Z,37.55
2016-05-15T08:06:33.359Z,36.9
2016-05-15T08:07:33.378Z,35.85
2016-05-15T08:08:33.256Z,35.08
2016-05-15T08:09:33.274Z,36.32
2016-05-15T08:10:33.466Z,37.55
2016-05-15T08:11:47.673Z,35.36
2016-05-15T08:12:33.360Z,36.49
2016-05-15T08:13:33.551Z,36.49
2016-05-15T08:14:33.569Z,37.7
2016-05-15T08:15:33.604Z,37.76
2016-05-15T08:16:33.621Z,37.11
2016-05-15T08:18:33.674Z,35.21
2016-05-15T08:19:33.707Z,34.55
2016-05-15T08:20:33.726Z,35.13
2016-05-15T08:21:33.760Z,36.44
2016-05-15T08:22:33.794Z,37.59
2016-05-15T08:23:33.828Z,36.55
2016-05-15T08:24:33.846Z,35.99
2016-05-15T08:25:33.865Z,36.57
2016-05-15T08:26:33.742Z,36.65
2016-05-15T08:27:48.106Z,37.68
2016-05-15T08:28:33.966Z,37.59
2016-05-15T08:29:33.970Z,37.87
2016-05-15T08:30:34.003Z,37.3
2016-05-15T08:31:34.036Z,38.53
2016-05-15T08:32:34.055Z,38.79
2016-05-15T08:33:34.073Z,37.78
2016-05-15T08:34:34.201Z,36.74
2016-05-15T08:35:34.141Z,36.72
2016-05-15T08:37:34.194Z,39.28
2016-05-15T08:38:34.211Z,38.89
2016-05-15T08:40:34.264Z,37.84
2016-05-15T08:41:34.282Z,37.93
2016-05-15T08:42:34.316Z,38.12
2016-05-15T08:43:48.525Z,37.74
2016-05-15T08:44:34.213Z,37.76
2016-05-15T08:45:34.402Z,36.71
2016-05-15T08:46:34.437Z,36.61
2016-05-15T08:47:34.455Z,36.32
2016-05-15T08:48:34.473Z,36.49
2016-05-15T08:49:34.507Z,36.59
2016-05-15T08:50:34.526Z,36.4
2016-05-15T08:54:34.629Z,31.41
2016-05-15T08:55:34.664Z,31.51
2016-05-15T08:56:34.682Z,30.36
2016-05-15T08:57:34.717Z,29.91
2016-05-15T08:58:34.734Z,29.73
2016-05-15T08:59:48.943Z,29.25
2016-05-15T09:00:34.803Z,28.59
2016-05-15T09:01:34.820Z,29.35
2016-05-15T09:02:34.855Z,29.62
2016-05-15T09:03:34.873Z,29.62
2016-05-15T09:04:35.067Z,28.67
2016-05-15T09:05:34.928Z,28.67
2016-05-15T09:06:34.961Z,28.3
2016-05-15T09:07:34.996Z,28.48
2016-05-15T09:08:35.013Z,29.51
2016-05-15T09:09:34.888Z,30.17
2016-05-15T09:10:35.083Z,30.46
2016-05-15T09:11:34.942Z,29.03
2016-05-15T09:12:35.134Z,28.84
2016-05-15T09:13:34.993Z,29.4
2016-05-15T09:14:49.358Z,29.4
2016-05-15T09:15:35.046Z,29.4
2016-05-15T09:16:35.238Z,31.3
2016-05-15T09:17:35.258Z,31.1
2016-05-15T09:18:35.307Z,32.33
2016-05-15T09:19:35.684Z,33.65
2016-05-15T09:20:35.343Z,34.69
2016-05-15T09:21:35.376Z,34.41
2016-05-15T09:22:35.396Z,35.08
2016-05-15T09:23:35.429Z,36.02
2016-05-15T09:25:35.482Z,38.66
2016-05-15T09:26:35.500Z,40.58
2016-05-15T09:27:35.534Z,42.85
2016-05-15T09:28:35.553Z,44.09
2016-05-15T09:29:35.586Z,46.56
2016-05-15T09:30:35.604Z,50.74
2016-05-15T09:31:35.639Z,54.25
2016-05-15T09:32:35.656Z,58.77
2016-05-15T09:33:35.691Z,61.54
2016-05-15T09:34:35.709Z,63.26
2016-05-15T09:35:35.742Z,62.27
2016-05-15T09:36:35.636Z,63.96
2016-05-15T09:37:35.795Z,65.36
2016-05-15T09:38:35.814Z,66.69
2016-05-15T09:40:35.850Z,67.74
2016-05-15T09:41:35.884Z,67.77
2016-05-15T09:42:35.918Z,66.91
2016-05-15T09:43:35.936Z,66.56
2016-05-15T09:44:35.813Z,64.56
2016-05-15T09:45:35.833Z,63.35
2016-05-15T09:46:50.194Z,61.73
2016-05-15T09:47:36.025Z,62.49
2016-05-15T09:48:36.059Z,63.26
2016-05-15T09:49:36.562Z,62.52
2016-05-15T09:50:36.112Z,61.66
2016-05-15T09:51:36.130Z,60.9
2016-05-15T09:52:36.163Z,60.97
2016-05-15T09:53:36.182Z,61.63
2016-05-15T09:54:36.200Z,62.68
2016-05-15T09:55:36.218Z,62.59
2016-05-15T09:56:36.081Z,61.29
2016-05-15T09:58:36.290Z,62.02
2016-05-15T09:59:36.323Z,60.68
2016-05-15T10:00:36.342Z,59.44
2016-05-15T10:01:36.375Z,61.51
2016-05-15T10:02:50.581Z,59.99
2016-05-15T10:03:36.412Z,59.53
2016-05-15T10:04:36.774Z,57.72
2016-05-15T10:05:36.464Z,56.7
2016-05-15T10:06:36.483Z,55.55
2016-05-15T10:07:36.361Z,54.72
2016-05-15T10:08:36.535Z,55.11
2016-05-15T10:09:36.568Z,54.34
2016-05-15T10:10:36.586Z,54.75
2016-05-15T10:11:36.606Z,53.51
2016-05-15T10:12:36.624Z,52.17
2016-05-15T10:13:36.657Z,53.86
2016-05-15T10:14:36.692Z,54.89
2016-05-15T10:15:36.710Z,54.38
2016-05-15T10:16:36.728Z,56.55
2016-05-15T10:17:36.762Z,55.72
2016-05-15T10:18:50.953Z,55.72
2016-05-15T10:19:36.643Z,53.93
2016-05-15T10:20:36.833Z,53.84
2016-05-15T10:21:36.851Z,54.29
2016-05-15T10:22:36.868Z,54.77
2016-05-15T10:23:36.904Z,55.15
2016-05-15T10:24:36.921Z,56.55
2016-05-15T10:25:36.956Z,54.77
2016-05-15T10:26:36.973Z,56.01
2016-05-15T10:27:37.023Z,56.58
2016-05-15T10:29:37.045Z,52.98
2016-05-15T10:30:37.062Z,52.98
2016-05-15T10:31:37.128Z,53.45
2016-05-15T10:32:37.115Z,52.31
2016-05-15T10:33:37.134Z,52.62
2016-05-15T10:34:51.339Z,53.39
2016-05-15T10:35:37.185Z,52.81
2016-05-15T10:36:37.220Z,52.55
2016-05-15T10:37:37.082Z,52.46
2016-05-15T10:38:37.272Z,51.31
2016-05-15T10:39:37.289Z,51.31
2016-05-15T10:40:37.309Z,52.55
2016-05-15T10:41:37.327Z,52.36
2016-05-15T10:42:37.361Z,51.62
2016-05-15T10:43:37.379Z,51.81
2016-05-15T10:44:37.397Z,50.84
2016-05-15T10:46:37.294Z,52.36
2016-05-15T10:47:37.483Z,51.24
2016-05-15T10:48:37.502Z,50.38
2016-05-15T10:49:51.707Z,49.8
2016-05-15T10:50:37.399Z,49.62
2016-05-15T10:51:37.572Z,49.62
2016-05-15T10:52:37.606Z,48.66
2016-05-15T10:53:37.624Z,49.02
2016-05-15T10:54:37.642Z,49.78
2016-05-15T10:55:37.677Z,49.88
2016-05-15T10:56:37.695Z,50.84
2016-05-15T10:57:37.713Z,51.6
2016-05-15T10:58:37.747Z,51.5
2016-05-15T10:59:37.782Z,51.5
2016-05-15T11:00:37.800Z,51.53
2016-05-15T11:01:37.818Z,49.74
2016-05-15T11:02:37.851Z,49.74
2016-05-15T11:03:37.871Z,48.42
2016-05-15T11:05:37.907Z,47.58
2016-05-15T11:06:37.941Z,47.18
2016-05-15T11:07:37.959Z,47.75
2016-05-15T11:08:37.992Z,47.37
2016-05-15T11:09:38.012Z,47.37
2016-05-15T11:10:38.045Z,47.2
2016-05-15T11:11:38.064Z,46.34
2016-05-15T11:12:38.082Z,43.49
2016-05-15T11:14:38.133Z,43.59
2016-05-15T11:16:38.186Z,43.2
2016-05-15T11:17:38.205Z,41.88
2016-05-15T11:18:38.223Z,41.96
2016-05-15T11:19:38.304Z,41.28
2016-05-15T11:20:38.275Z,39.18
2016-05-15T11:21:52.496Z,39.97
2016-05-15T11:22:38.327Z,39.39
2016-05-15T11:23:38.362Z,39.12
2016-05-15T11:24:38.379Z,39.6
2016-05-15T11:25:38.413Z,38.35
2016-05-15T11:26:38.432Z,39.58
2016-05-15T11:27:38.450Z,41
2016-05-15T11:28:38.484Z,39.58
2016-05-15T11:29:38.503Z,39.48
2016-05-15T11:30:38.537Z,38.91
2016-05-15T11:31:38.554Z,38.91
2016-05-15T11:32:38.573Z,37.85
2016-05-15T11:33:38.607Z,38.89
2016-05-15T11:34:38.626Z,39.58
2016-05-15T11:35:38.644Z,38.05
2016-05-15T11:36:38.522Z,39.1
2016-05-15T11:37:52.883Z,38.51
2016-05-15T11:38:38.730Z,39.1
2016-05-15T11:39:38.592Z,39.58
2016-05-15T11:40:38.783Z,36.82
2016-05-15T11:41:38.800Z,38.53
2016-05-15T11:42:38.772Z,37.09
2016-05-15T11:43:38.696Z,37.66
2016-05-15T11:44:38.872Z,38.43
2016-05-15T11:45:38.905Z,37.57
2016-05-15T11:46:38.924Z,36.22
2016-05-15T11:47:38.941Z,36.8
2016-05-15T11:48:38.975Z,36.42
2016-05-15T11:49:38.993Z,35.65
2016-05-15T11:50:39.028Z,35.46
2016-05-15T11:51:39.046Z,34.88
2016-05-15T11:52:39.065Z,36.79
2016-05-15T11:53:53.270Z,37.09
2016-05-15T11:54:39.116Z,37.59
2016-05-15T11:55:39.150Z,35.77
2016-05-15T11:56:39.216Z,35.17
2016-05-15T11:57:39.188Z,37.65
2016-05-15T11:58:39.065Z,37.95
2016-05-15T11:59:39.239Z,36.61
2016-05-15T12:00:39.117Z,36.8
2016-05-15T12:01:39.292Z,37.85
2016-05-15T12:02:39.310Z,37.55
2016-05-15T12:03:39.345Z,38.32
2016-05-15T12:04:39.378Z,37.26
2016-05-15T12:05:39.396Z,37.7
2016-05-15T12:06:39.414Z,37.72
2016-05-15T12:07:39.448Z,36.77
2016-05-15T12:08:39.467Z,37.65
2016-05-15T12:09:53.673Z,36.88
2016-05-15T12:10:39.503Z,35.73
2016-05-15T12:11:39.537Z,37.34
2016-05-15T12:12:39.572Z,37.82
2016-05-15T12:13:39.590Z,38.49
2016-05-15T12:14:39.608Z,37.84
2016-05-15T12:15:39.642Z,37.63
2016-05-15T12:16:39.660Z,35.81
2016-05-15T12:18:39.712Z,34.94
2016-05-15T12:19:39.965Z,35.6
2016-05-15T12:20:39.750Z,34.75
2016-05-15T12:22:39.802Z,36.36
2016-05-15T12:23:39.835Z,36.94
2016-05-15T12:24:54.041Z,35.71
2016-05-15T12:25:39.887Z,35.9
2016-05-15T12:26:39.907Z,35.42
2016-05-15T12:27:39.924Z,36.27
2016-05-15T12:28:39.943Z,36.36
2016-05-15T12:29:39.976Z,36.65
2016-05-15T12:30:39.995Z,36.94
2016-05-15T12:31:40.029Z,36.65
2016-05-15T12:32:40.063Z,36.27
2016-05-15T12:33:40.081Z,35.6
2016-05-15T12:34:40.099Z,36.46
2016-05-15T12:35:40.117Z,35.61
2016-05-15T12:36:40.136Z,35.71
2016-05-15T12:37:40.170Z,34.85
2016-05-15T12:38:40.032Z,35.52
2016-05-15T12:39:40.223Z,35.04
2016-05-15T12:40:40.240Z,35.61
2016-05-15T12:41:40.259Z,37.34
2016-05-15T12:42:40.292Z,36.67
2016-05-15T12:43:40.311Z,37.72
2016-05-15T12:44:40.329Z,38.2
2016-05-15T12:45:40.364Z,37.65
2016-05-15T12:46:40.397Z,37.84
2016-05-15T12:47:40.416Z,37.84
2016-05-15T12:48:40.434Z,36.98
2016-05-15T12:49:40.311Z,36.98
2016-05-15T12:50:40.486Z,36.21
2016-05-15T12:53:40.557Z,36.51
2016-05-15T12:54:40.591Z,36.04
2016-05-15T12:55:40.609Z,35.55
2016-05-15T12:56:54.815Z,35.17
2016-05-15T12:57:40.661Z,35.08
2016-05-15T12:58:40.680Z,34.98
2016-05-15T12:59:40.713Z,36.59
2016-05-15T13:01:40.750Z,35.67
2016-05-15T13:02:40.784Z,35.28
2016-05-15T13:04:40.821Z,33.67
2016-05-15T13:06:40.889Z,33.58
2016-05-15T13:07:40.734Z,33.58
2016-05-15T13:08:40.925Z,33.17
2016-05-15T13:09:40.974Z,33.27
2016-05-15T13:10:40.992Z,33.65
2016-05-15T13:11:40.996Z,32.31
2016-05-15T13:12:55.201Z,32.79
2016-05-15T13:13:41.048Z,32.51
2016-05-15T13:14:41.081Z,32.59
2016-05-15T13:15:40.944Z,31.74
2016-05-15T13:16:41.119Z,32.03
2016-05-15T13:17:40.981Z,32.21
2016-05-15T13:18:41.171Z,32.51
2016-05-15T13:19:41.767Z,31.35
2016-05-15T13:20:41.222Z,32.49
2016-05-15T13:21:41.257Z,33.06
2016-05-15T13:22:41.260Z,33.24
2016-05-15T13:23:41.309Z,33.33
2016-05-15T13:24:41.328Z,33.43
2016-05-15T13:25:41.377Z,33.43
2016-05-15T13:26:41.363Z,33.73
2016-05-15T13:27:41.398Z,33.54
2016-05-15T13:28:55.604Z,32.76
2016-05-15T13:29:41.434Z,32.26
2016-05-15T13:30:41.454Z,33.59
2016-05-15T13:31:41.487Z,34.36
2016-05-15T13:32:41.505Z,36.61
2016-05-15T13:33:41.554Z,39.54
2016-05-15T13:34:41.557Z,43.07
2016-05-15T13:35:41.592Z,43.91
2016-05-15T13:36:41.609Z,45.15
2016-05-15T13:38:41.662Z,46.18
2016-05-15T13:39:41.681Z,46.66
2016-05-15T13:40:41.698Z,46.39
2016-05-15T13:41:41.733Z,46.77
2016-05-15T13:42:41.750Z,48.3
2016-05-15T13:43:41.770Z,46.97
2016-05-15T13:44:55.991Z,46.77
2016-05-15T13:45:41.822Z,45.72